Time;durP1;ratioP1;P1;durP2;ratioP2;P2;SDS_P1;SDS_P2;PMS_P1;PMS_P2;Temp;Humidity;BMP_temperature;BMP_pressure;BME280_temperature;BME280_humidity;BME280_pressure;Samples;Min_cycle;Max_cycle;Signal;HPM_P1;HPM_P2
2023/01/26 00:00:06;;;;;;;21.87;13.63;;;4.80;99.90;;;;;;5072035;28;20567;-73
2023/01/26 00:02:32;;;;;;;23.87;14.33;;;4.80;99.90;;;;;;5078289;28;20182;-73
2023/01/26 00:04:57;;;;;;;23.30;14.60;;;4.80;99.90;;;;;;5076679;28;20951;-74
2023/01/26 00:07:23;;;;;;;24.47;14.70;;;4.80;99.90;;;;;;5075045;28;20218;-74
2023/01/26 00:09:48;;;;;;;27.67;15.63;;;4.80;99.90;;;;;;5073959;28;20205;-74
2023/01/26 00:12:14;;;;;;;24.27;14.97;;;4.80;99.90;;;;;;5072508;28;20197;-74
2023/01/26 00:14:49;;;;;;;27.20;15.20;;;4.80;99.90;;;;;;5078948;28;20186;-74
2023/01/26 00:17:16;;;;;;;21.70;14.30;;;4.70;99.90;;;;;;5073300;28;20198;-74
2023/01/26 00:19:41;;;;;;;24.73;15.70;;;4.70;99.90;;;;;;5078234;28;20421;-74
2023/01/26 00:22:07;;;;;;;24.67;15.10;;;4.80;99.90;;;;;;5070967;28;20455;-74
2023/01/26 00:24:32;;;;;;;22.17;15.07;;;4.80;99.90;;;;;;5079444;28;20186;-74
2023/01/26 00:26:58;;;;;;;20.63;13.07;;;4.80;99.90;;;;;;5073465;28;20206;-75
2023/01/26 00:29:23;;;;;;;23.27;15.13;;;4.70;99.90;;;;;;5075797;28;20182;-75
2023/01/26 00:31:49;;;;;;;22.23;13.70;;;4.80;99.90;;;;;;5074576;28;20559;-75
2023/01/26 00:34:14;;;;;;;22.67;13.40;;;4.80;99.90;;;;;;5075363;28;20229;-75
2023/01/26 00:36:40;;;;;;;25.43;14.10;;;4.70;99.90;;;;;;5074608;28;20979;-75
2023/01/26 00:39:05;;;;;;;21.70;13.60;;;4.70;99.90;;;;;;5074611;28;20209;-75
2023/01/26 00:44:15;;;;;;;21.67;14.13;;;4.70;99.90;;;;;;5072953;28;20278;-75
2023/01/26 00:46:40;;;;;;;24.23;13.37;;;4.70;99.90;;;;;;5073020;28;20971;-74
2023/01/26 00:49:06;;;;;;;22.70;14.43;;;4.70;99.90;;;;;;5068515;28;20516;-75
2023/01/26 00:51:31;;;;;;;20.90;13.80;;;4.70;99.90;;;;;;5075724;28;20592;-75
2023/01/26 00:53:57;;;;;;;22.60;13.70;;;4.70;99.90;;;;;;5073474;28;20215;-75
2023/01/26 00:56:22;;;;;;;25.27;15.40;;;4.70;99.90;;;;;;5073294;28;20206;-74
2023/01/26 00:58:48;;;;;;;20.70;13.70;;;4.70;99.90;;;;;;5075297;28;20206;-74
2023/01/26 01:01:13;;;;;;;21.90;13.93;;;4.70;99.90;;;;;;5070620;28;20178;-74
2023/01/26 01:03:39;;;;;;;23.10;13.63;;;4.70;99.90;;;;;;5071034;28;20571;-73
2023/01/26 01:06:05;;;;;;;22.37;13.33;;;4.70;99.90;;;;;;5074260;28;20221;-75
2023/01/26 01:08:30;;;;;;;21.13;13.33;;;4.70;99.90;;;;;;5078430;28;20604;-74
2023/01/26 01:11:07;;;;;;;25.10;13.90;;;4.70;99.90;;;;;;5065339;28;20253;-75
2023/01/26 01:13:33;;;;;;;22.47;13.27;;;4.70;99.90;;;;;;5057739;28;20183;-75
2023/01/26 01:15:59;;;;;;;20.07;12.83;;;4.70;99.90;;;;;;5074199;28;20448;-75
2023/01/26 01:18:25;;;;;;;23.30;13.93;;;4.70;99.90;;;;;;5075324;28;20456;-75
2023/01/26 01:20:50;;;;;;;26.60;14.87;;;4.70;99.90;;;;;;5075506;28;20189;-75
2023/01/26 01:23:16;;;;;;;26.17;14.23;;;4.70;99.90;;;;;;5076427;28;20198;-75
2023/01/26 01:25:41;;;;;;;26.17;14.00;;;4.70;99.90;;;;;;5075551;28;21068;-75
2023/01/26 01:28:07;;;;;;;24.70;14.47;;;4.70;99.90;;;;;;5058666;28;20178;-75
2023/01/26 01:30:32;;;;;;;21.60;13.10;;;4.70;99.90;;;;;;5073878;28;20961;-76
2023/01/26 01:32:58;;;;;;;22.10;13.40;;;4.70;99.90;;;;;;5075077;28;20180;-76
2023/01/26 01:35:23;;;;;;;26.93;16.30;;;4.70;99.90;;;;;;5075193;28;20558;-75
2023/01/26 01:37:49;;;;;;;23.70;15.30;;;4.80;99.90;;;;;;5070547;28;20245;-76
2023/01/26 01:40:15;;;;;;;22.10;14.07;;;4.70;99.90;;;;;;5073224;28;20186;-76
2023/01/26 01:42:47;;;;;;;21.40;13.70;;;4.70;99.90;;;;;;5074319;28;20178;-76
2023/01/26 01:45:25;;;;;;;22.10;14.20;;;4.70;99.90;;;;;;5073059;28;20623;-76
2023/01/26 01:47:54;;;;;;;24.50;14.20;;;4.80;99.90;;;;;;5073033;28;20584;-76
2023/01/26 01:50:20;;;;;;;23.40;13.83;;;4.80;99.90;;;;;;5073341;28;20428;-74
2023/01/26 01:52:46;;;;;;;24.77;14.57;;;4.70;99.90;;;;;;5075614;28;20945;-75
2023/01/26 01:55:14;;;;;;;23.43;14.37;;;4.70;99.90;;;;;;5072955;28;20178;-74
2023/01/26 01:57:54;;;;;;;22.97;15.10;;;4.70;99.90;;;;;;5074710;28;21149;-74
2023/01/26 02:00:22;;;;;;;24.97;14.40;;;4.70;99.90;;;;;;5057050;28;20448;-74
2023/01/26 02:03:10;;;;;;;21.20;13.70;;;4.70;99.90;;;;;;5074634;28;20444;-74
2023/01/26 02:05:50;;;;;;;22.80;14.17;;;4.70;99.90;;;;;;5077168;28;20443;-74
2023/01/26 02:08:18;;;;;;;22.00;13.90;;;4.70;99.90;;;;;;5063614;28;20987;-74
2023/01/26 02:10:47;;;;;;;24.10;14.63;;;4.70;99.90;;;;;;5076922;28;20441;-75
2023/01/26 02:13:15;;;;;;;25.57;14.17;;;4.70;99.90;;;;;;5078710;28;20435;-72
2023/01/26 02:15:41;;;;;;;25.67;14.30;;;4.70;99.90;;;;;;5081636;28;20435;-73
2023/01/26 02:18:09;;;;;;;24.43;14.60;;;4.70;99.90;;;;;;5080547;28;20464;-72
2023/01/26 02:20:49;;;;;;;24.50;14.87;;;4.70;99.90;;;;;;5084505;28;20525;-73
2023/01/26 02:23:30;;;;;;;26.13;14.53;;;4.70;99.90;;;;;;5084178;28;20428;-73
2023/01/26 02:26:04;;;;;;;27.10;13.60;;;4.70;99.90;;;;;;5063370;28;21054;-72
2023/01/26 02:28:30;;;;;;;26.07;14.90;;;4.70;99.90;;;;;;5084069;28;20512;-73
2023/01/26 02:30:56;;;;;;;23.80;15.20;;;4.70;99.90;;;;;;5082072;28;20428;-73
2023/01/26 02:33:25;;;;;;;27.17;14.60;;;4.70;99.90;;;;;;5080996;28;20278;-72
2023/01/26 02:35:51;;;;;;;28.20;14.97;;;4.60;99.90;;;;;;5063018;28;20460;-74
2023/01/26 02:38:20;;;;;;;30.77;14.93;;;4.60;99.90;;;;;;5075911;28;20534;-73
2023/01/26 02:40:54;;;;;;;26.70;15.43;;;4.60;99.90;;;;;;5080892;28;20906;-74
2023/01/26 02:43:22;;;;;;;28.27;15.13;;;4.60;99.90;;;;;;5080640;28;20425;-74
2023/01/26 02:45:47;;;;;;;24.83;15.60;;;4.60;99.90;;;;;;5080856;28;20555;-73
2023/01/26 02:48:13;;;;;;;26.80;15.93;;;4.60;99.90;;;;;;5080706;28;20455;-74
2023/01/26 02:50:38;;;;;;;26.10;14.23;;;4.60;99.90;;;;;;5076291;28;20190;-74
2023/01/26 02:53:04;;;;;;;24.53;14.40;;;4.60;99.90;;;;;;5081536;28;20202;-74
2023/01/26 02:55:30;;;;;;;28.97;16.13;;;4.60;99.90;;;;;;5084145;28;20273;-75
2023/01/26 02:58:01;;;;;;;23.80;14.00;;;4.60;99.90;;;;;;5082062;28;20348;-74
2023/01/26 03:00:29;;;;;;;23.33;14.43;;;4.60;99.90;;;;;;5078477;28;20217;-74
2023/01/26 03:02:58;;;;;;;28.30;16.83;;;4.60;99.90;;;;;;5080341;28;20482;-73
2023/01/26 03:05:24;;;;;;;30.83;17.40;;;4.60;99.90;;;;;;5079266;28;20889;-74
2023/01/26 03:07:50;;;;;;;30.30;16.50;;;4.60;99.90;;;;;;5080744;28;20471;-73
2023/01/26 03:10:17;;;;;;;27.17;15.00;;;4.60;99.90;;;;;;5060581;28;20444;-73
2023/01/26 03:12:43;;;;;;;27.93;16.37;;;4.60;99.90;;;;;;5075104;28;20278;-73
2023/01/26 03:29:07;;;;;;;26.80;14.80;;;4.60;99.90;;;;;;5077496;28;20459;-73
2023/01/26 03:31:33;;;;;;;27.57;16.17;;;4.60;99.90;;;;;;5074863;28;20535;-74
2023/01/26 03:33:58;;;;;;;29.13;16.80;;;4.60;99.90;;;;;;5073253;28;20261;-74
2023/01/26 03:36:24;;;;;;;27.67;16.63;;;4.60;99.90;;;;;;5078632;28;20210;-74
2023/01/26 03:38:49;;;;;;;28.53;17.00;;;4.60;99.90;;;;;;5080702;28;20641;-74
2023/01/26 03:57:39;;;;;;;32.07;15.33;;;4.60;99.90;;;;;;5078093;28;20471;-74
2023/01/26 04:00:05;;;;;;;26.50;14.80;;;4.60;99.90;;;;;;5075996;28;20432;-72
2023/01/26 04:11:08;;;;;;;27.60;16.60;;;4.50;99.90;;;;;;4995892;28;20431;-72
2023/01/26 04:21:46;;;;;;;28.93;13.93;;;4.50;99.90;;;;;;5001513;28;20675;-74
2023/01/26 04:24:14;;;;;;;28.80;15.97;;;4.50;99.90;;;;;;4979756;28;20480;-74
2023/01/26 04:26:41;;;;;;;28.50;15.23;;;4.50;99.90;;;;;;4982194;28;20213;-73
2023/01/26 04:29:10;;;;;;;27.23;14.77;;;4.50;99.90;;;;;;5040471;28;20816;-73
2023/01/26 04:31:36;;;;;;;29.37;14.80;;;4.50;99.90;;;;;;5074443;28;20794;-73
2023/01/26 04:34:04;;;;;;;29.57;16.40;;;4.40;99.90;;;;;;5077788;28;20437;-73
2023/01/26 04:36:30;;;;;;;30.07;17.60;;;4.40;99.90;;;;;;5073519;28;20456;-73
2023/01/26 04:38:56;;;;;;;36.13;16.80;;;4.40;99.90;;;;;;5076421;28;20981;-73
2023/01/26 04:41:22;;;;;;;34.40;19.00;;;4.40;99.90;;;;;;5078631;28;20420;-73
2023/01/26 04:43:47;;;;;;;36.90;20.90;;;4.40;99.90;;;;;;5077814;28;20171;-73
2023/01/26 04:46:13;;;;;;;33.60;18.60;;;4.40;99.90;;;;;;5072226;28;20456;-72
2023/01/26 04:48:38;;;;;;;33.90;19.57;;;4.40;99.90;;;;;;5076318;28;20549;-73
2023/01/26 04:51:07;;;;;;;34.43;20.17;;;4.40;99.90;;;;;;5075725;28;20247;-73
2023/01/26 04:53:33;;;;;;;37.07;19.17;;;4.40;99.90;;;;;;5075686;28;20418;-73
2023/01/26 04:55:59;;;;;;;41.40;19.90;;;4.40;99.90;;;;;;5073058;28;20456;-73
2023/01/26 04:58:25;;;;;;;37.87;20.57;;;4.40;99.90;;;;;;5075475;28;20468;-72
2023/01/26 05:00:52;;;;;;;41.37;19.17;;;4.40;99.90;;;;;;5070358;28;20508;-73
2023/01/26 05:03:17;;;;;;;40.90;20.70;;;4.30;99.90;;;;;;5076437;28;20424;-72
2023/01/26 05:05:44;;;;;;;42.23;20.00;;;4.40;99.90;;;;;;5075375;28;20448;-72
2023/01/26 05:08:09;;;;;;;37.23;20.30;;;4.40;99.90;;;;;;5074300;28;20613;-73
2023/01/26 05:10:35;;;;;;;42.77;20.50;;;4.40;99.90;;;;;;5055286;28;20464;-74
2023/01/26 05:13:01;;;;;;;42.33;21.80;;;4.30;99.90;;;;;;5076001;28;20202;-74
2023/01/26 05:15:26;;;;;;;40.13;19.93;;;4.30;99.90;;;;;;5075806;28;20178;-74
2023/01/26 05:17:52;;;;;;;34.37;18.47;;;4.30;99.90;;;;;;5073069;28;20199;-73
2023/01/26 05:20:17;;;;;;;38.73;19.60;;;4.30;99.90;;;;;;5075489;28;20181;-73
2023/01/26 05:22:43;;;;;;;39.50;20.53;;;4.30;99.90;;;;;;5058236;28;20178;-73
2023/01/26 05:25:10;;;;;;;32.87;18.07;;;4.30;99.90;;;;;;5057017;28;20247;-73
2023/01/26 05:27:35;;;;;;;35.07;17.10;;;4.30;99.90;;;;;;5069913;28;20213;-73
2023/01/26 05:30:02;;;;;;;42.40;21.50;;;4.30;99.90;;;;;;5076255;28;20455;-73
2023/01/26 05:32:29;;;;;;;42.00;21.97;;;4.30;99.90;;;;;;5058197;28;20396;-73
2023/01/26 05:34:55;;;;;;;41.60;22.90;;;4.30;99.90;;;;;;5074871;28;20927;-72
2023/01/26 05:37:23;;;;;;;35.33;18.10;;;4.30;99.90;;;;;;5075179;28;20451;-72
2023/01/26 05:39:49;;;;;;;74.40;37.13;;;4.30;99.90;;;;;;5073132;28;20433;-72
2023/01/26 05:42:14;;;;;;;40.10;21.90;;;4.30;99.90;;;;;;5072709;28;20426;-73
2023/01/26 05:44:40;;;;;;;37.90;20.50;;;4.30;99.90;;;;;;5076189;28;20190;-74
2023/01/26 05:47:05;;;;;;;30.40;17.70;;;4.30;99.90;;;;;;5071184;28;20207;-74
2023/01/26 05:49:31;;;;;;;43.37;21.90;;;4.20;99.90;;;;;;5075734;28;20212;-74
2023/01/26 05:51:57;;;;;;;29.20;16.27;;;4.20;99.90;;;;;;5075348;28;20186;-73
2023/01/26 05:54:22;;;;;;;35.90;18.93;;;4.30;99.90;;;;;;5071663;28;20193;-73
2023/01/26 05:56:48;;;;;;;31.63;17.17;;;4.20;99.90;;;;;;5074107;28;20836;-73
2023/01/26 05:59:14;;;;;;;28.07;15.80;;;4.20;99.90;;;;;;5072656;28;20267;-73
2023/01/26 06:01:40;;;;;;;28.63;15.93;;;4.20;99.90;;;;;;5069869;28;20594;-72
2023/01/26 06:04:05;;;;;;;29.30;15.07;;;4.20;99.90;;;;;;5075072;28;20428;-72
2023/01/26 06:06:31;;;;;;;30.23;15.17;;;4.20;99.90;;;;;;5071765;28;20685;-73
2023/01/26 06:08:57;;;;;;;29.87;15.77;;;4.20;99.90;;;;;;5049517;28;20198;-72
2023/01/26 06:11:23;;;;;;;29.73;14.40;;;4.20;99.90;;;;;;5070050;28;21250;-72
2023/01/26 06:13:49;;;;;;;25.70;14.87;;;4.20;99.90;;;;;;5076311;28;20501;-72
2023/01/26 06:16:14;;;;;;;30.23;16.47;;;4.10;99.90;;;;;;5069953;28;20556;-72
2023/01/26 06:18:40;;;;;;;27.83;14.43;;;4.10;99.90;;;;;;5057675;28;20202;-72
2023/01/26 06:21:05;;;;;;;31.30;15.83;;;4.10;99.90;;;;;;5072792;28;20349;-72
2023/01/26 06:23:31;;;;;;;28.03;14.87;;;4.10;99.90;;;;;;5074122;28;20240;-72
2023/01/26 06:26:00;;;;;;;29.90;14.30;;;4.10;99.90;;;;;;5074537;28;20507;-71
2023/01/26 06:28:27;;;;;;;31.70;16.87;;;4.10;99.90;;;;;;5072454;28;20280;-72
2023/01/26 06:30:59;;;;;;;27.00;16.10;;;4.10;99.90;;;;;;5070733;28;20522;-71
2023/01/26 06:33:24;;;;;;;32.87;16.20;;;4.10;99.90;;;;;;5074247;28;20420;-71
2023/01/26 06:35:51;;;;;;;29.03;15.57;;;4.10;99.90;;;;;;5070427;28;20459;-71
2023/01/26 06:38:16;;;;;;;27.23;16.20;;;4.10;99.90;;;;;;5071810;28;20201;-72
2023/01/26 06:40:42;;;;;;;27.93;15.10;;;4.10;99.90;;;;;;5072045;28;20915;-72
2023/01/26 06:43:07;;;;;;;27.50;16.23;;;4.10;99.90;;;;;;5073430;28;20178;-72
2023/01/26 06:45:33;;;;;;;28.20;15.43;;;4.10;99.90;;;;;;5067347;28;20656;-72
2023/01/26 06:47:58;;;;;;;27.63;16.20;;;4.10;99.90;;;;;;5066330;28;20189;-72
2023/01/26 06:50:30;;;;;;;28.27;15.90;;;4.10;99.90;;;;;;5052467;28;20282;-72
2023/01/26 06:52:58;;;;;;;30.07;16.00;;;4.10;99.90;;;;;;5069857;28;20644;-72
2023/01/26 06:55:37;;;;;;;28.50;15.30;;;4.10;99.90;;;;;;5072198;28;20463;-72
2023/01/26 06:58:03;;;;;;;28.13;15.77;;;4.00;99.90;;;;;;5051439;28;20501;-73
2023/01/26 07:00:28;;;;;;;32.87;15.60;;;4.00;99.90;;;;;;5073783;28;21029;-73
2023/01/26 07:02:54;;;;;;;29.03;16.73;;;4.00;99.90;;;;;;5075135;28;20669;-72
2023/01/26 07:05:19;;;;;;;33.43;16.93;;;3.90;99.90;;;;;;5073535;28;20179;-72
2023/01/26 07:07:45;;;;;;;31.57;16.00;;;3.90;99.90;;;;;;5074001;28;20215;-73
2023/01/26 07:10:11;;;;;;;29.30;15.30;;;4.00;99.90;;;;;;5060704;28;20276;-74
2023/01/26 07:12:41;;;;;;;27.47;15.73;;;4.00;99.90;;;;;;5073758;28;20587;-71
2023/01/26 07:15:07;;;;;;;26.10;16.67;;;4.00;99.90;;;;;;5074823;28;20270;-70
2023/01/26 07:17:32;;;;;;;33.83;15.63;;;4.00;99.90;;;;;;5074348;28;20452;-66
2023/01/26 07:19:58;;;;;;;32.27;15.00;;;3.90;99.90;;;;;;5075744;28;20434;-66
2023/01/26 07:22:23;;;;;;;37.23;17.90;;;3.90;99.90;;;;;;5078100;28;20215;-66
2023/01/26 07:24:49;;;;;;;29.97;15.23;;;3.90;99.90;;;;;;5079377;28;20225;-67
2023/01/26 07:27:14;;;;;;;34.60;17.00;;;3.90;99.90;;;;;;5074380;28;20226;-66
2023/01/26 07:29:40;;;;;;;33.23;17.00;;;3.80;99.90;;;;;;5079933;28;20174;-66
2023/01/26 07:32:05;;;;;;;34.33;16.00;;;3.80;99.90;;;;;;5075184;28;20241;-64
2023/01/26 07:34:32;;;;;;;28.80;14.53;;;3.90;99.90;;;;;;5074044;28;20175;-64
2023/01/26 07:36:58;;;;;;;31.83;16.10;;;3.90;99.90;;;;;;5078485;28;20440;-64
2023/01/26 07:39:23;;;;;;;30.90;16.67;;;3.90;99.90;;;;;;5067780;28;20260;-68
2023/01/26 07:41:50;;;;;;;27.30;15.83;;;4.00;99.90;;;;;;5078317;28;20187;-67
2023/01/26 07:44:15;;;;;;;34.17;17.57;;;4.00;99.90;;;;;;5056248;28;20170;-67
2023/01/26 07:46:41;;;;;;;34.53;16.37;;;4.00;99.90;;;;;;5072575;28;21007;-71
2023/01/26 07:49:06;;;;;;;31.83;16.40;;;4.00;99.90;;;;;;5080353;28;20182;-71
2023/01/26 07:51:47;;;;;;;29.80;16.73;;;4.00;99.90;;;;;;5075353;28;20186;-71
2023/01/26 07:54:13;;;;;;;38.60;17.03;;;4.00;99.90;;;;;;5075867;28;20261;-72
2023/01/26 07:56:38;;;;;;;31.43;16.10;;;4.00;99.90;;;;;;5076343;28;20531;-72
2023/01/26 07:59:04;;;;;;;35.07;16.13;;;4.00;99.90;;;;;;5075526;28;20221;-68
2023/01/26 08:01:29;;;;;;;33.73;17.07;;;4.00;99.90;;;;;;5073079;28;20186;-69
2023/01/26 08:03:55;;;;;;;30.03;15.50;;;4.00;99.90;;;;;;5072222;28;20175;-68
2023/01/26 08:06:21;;;;;;;37.37;16.43;;;4.00;99.90;;;;;;5070205;28;20219;-68
2023/01/26 08:08:52;;;;;;;32.70;17.03;;;3.90;99.90;;;;;;5071212;28;20270;-68
2023/01/26 08:11:21;;;;;;;33.87;16.57;;;3.90;99.90;;;;;;5069981;28;20954;-69
2023/01/26 08:13:47;;;;;;;24.40;14.93;;;4.00;99.90;;;;;;5076199;28;20444;-69
2023/01/26 08:16:13;;;;;;;27.53;15.73;;;4.00;99.90;;;;;;5072668;28;20500;-69
2023/01/26 08:18:43;;;;;;;31.60;16.00;;;4.10;99.90;;;;;;5075254;28;20669;-69
2023/01/26 08:21:10;;;;;;;37.93;15.87;;;4.00;99.90;;;;;;5070192;28;20474;-70
2023/01/26 08:23:36;;;;;;;32.57;16.17;;;4.00;99.90;;;;;;5074700;28;20542;-71
2023/01/26 08:26:04;;;;;;;23.83;14.40;;;4.00;99.90;;;;;;5072845;28;20441;-72
2023/01/26 08:28:30;;;;;;;33.27;14.63;;;4.00;99.90;;;;;;5076024;28;20183;-72
2023/01/26 08:31:01;;;;;;;27.87;15.77;;;4.00;99.90;;;;;;5073428;28;20436;-72
2023/01/26 08:33:27;;;;;;;29.50;15.50;;;4.00;99.90;;;;;;5075276;28;20191;-72
2023/01/26 08:35:52;;;;;;;28.47;16.40;;;4.00;99.90;;;;;;5076411;28;20519;-72
2023/01/26 08:38:18;;;;;;;28.57;14.90;;;4.00;99.90;;;;;;5074010;28;20198;-72
2023/01/26 08:40:43;;;;;;;29.07;15.03;;;4.00;99.90;;;;;;5075312;28;20182;-72
2023/01/26 08:43:09;;;;;;;27.20;14.57;;;4.00;99.90;;;;;;5057827;28;20186;-73
2023/01/26 08:45:34;;;;;;;29.00;14.60;;;4.00;99.90;;;;;;5072656;28;20182;-70
2023/01/26 08:48:00;;;;;;;29.90;14.80;;;4.00;99.90;;;;;;5075455;28;20727;-72
2023/01/26 08:50:25;;;;;;;28.83;16.57;;;4.00;99.90;;;;;;5075819;28;20648;-73
2023/01/26 08:52:53;;;;;;;26.17;14.93;;;4.00;99.90;;;;;;5056008;28;20749;-73
2023/01/26 08:55:19;;;;;;;26.77;14.60;;;4.00;99.90;;;;;;5075259;28;20257;-73
2023/01/26 08:57:45;;;;;;;21.13;11.70;;;4.00;99.90;;;;;;5067912;28;20567;-74
2023/01/26 09:00:12;;;;;;;25.90;13.90;;;4.10;99.90;;;;;;5071864;28;20599;-70
2023/01/26 09:02:37;;;;;;;23.00;13.20;;;4.10;99.90;;;;;;5075750;28;20468;-70
2023/01/26 09:05:03;;;;;;;28.83;15.07;;;4.10;99.90;;;;;;5076966;28;20455;-70
2023/01/26 09:07:29;;;;;;;29.97;14.90;;;4.10;99.90;;;;;;5075648;28;20209;-69
2023/01/26 09:09:54;;;;;;;25.13;14.40;;;4.10;99.90;;;;;;5069739;28;20187;-71
2023/01/26 09:12:20;;;;;;;22.30;12.30;;;4.10;99.90;;;;;;5077258;28;20706;-70
2023/01/26 09:14:45;;;;;;;26.10;14.43;;;4.10;99.90;;;;;;5076873;28;20210;-73
2023/01/26 09:17:11;;;;;;;27.60;15.23;;;4.20;99.90;;;;;;5072169;28;20738;-72
2023/01/26 09:19:37;;;;;;;25.70;13.03;;;4.10;99.90;;;;;;5075264;28;20263;-74
2023/01/26 09:22:03;;;;;;;24.83;13.50;;;4.20;99.90;;;;;;5057594;28;20198;-71
2023/01/26 09:24:29;;;;;;;24.60;13.93;;;4.20;99.90;;;;;;5075603;28;21188;-71
2023/01/26 09:26:54;;;;;;;25.13;13.70;;;4.20;99.90;;;;;;5074215;28;20480;-72
2023/01/26 09:29:20;;;;;;;24.40;13.20;;;4.20;99.90;;;;;;5071278;28;20292;-72
2023/01/26 09:31:45;;;;;;;23.17;11.97;;;4.20;99.90;;;;;;5073029;28;20175;-74
2023/01/26 09:34:11;;;;;;;25.50;13.50;;;4.20;99.90;;;;;;5069582;28;20554;-76
2023/01/26 09:36:36;;;;;;;26.07;12.00;;;4.20;99.90;;;;;;5054113;28;20194;-74
2023/01/26 09:39:02;;;;;;;17.33;10.67;;;4.20;99.90;;;;;;5072026;28;20213;-75
2023/01/26 09:41:40;;;;;;;21.27;12.40;;;4.30;99.90;;;;;;5074489;28;20182;-75
2023/01/26 09:44:10;;;;;;;16.30;10.20;;;4.30;99.90;;;;;;5072497;28;20301;-73
2023/01/26 09:46:44;;;;;;;15.47;10.40;;;4.30;99.90;;;;;;5074672;28;20440;-74
2023/01/26 09:49:19;;;;;;;18.57;9.80;;;4.40;99.90;;;;;;5070808;28;20931;-75
2023/01/26 09:52:05;;;;;;;34.70;20.43;;;4.50;99.90;;;;;;5075898;28;20438;-70
2023/01/26 09:54:45;;;;;;;21.80;11.83;;;4.40;99.90;;;;;;5056677;28;20440;-70
2023/01/26 09:57:25;;;;;;;22.30;12.03;;;4.50;99.90;;;;;;5069476;28;21110;-71
2023/01/26 10:00:06;;;;;;;23.13;13.83;;;4.50;99.90;;;;;;5051932;28;20449;-72
2023/01/26 10:02:53;;;;;;;25.60;14.43;;;4.50;99.90;;;;;;5070401;28;20470;-73
2023/01/26 10:05:34;;;;;;;20.90;11.87;;;4.50;99.90;;;;;;5073776;28;20428;-73
2023/01/26 10:08:01;;;;;;;24.13;14.03;;;4.60;99.90;;;;;;5073758;28;20428;-71
2023/01/26 10:10:33;;;;;;;22.43;12.50;;;4.60;99.90;;;;;;5054190;28;20455;-72
2023/01/26 10:13:00;;;;;;;18.93;12.57;;;4.60;99.90;;;;;;5068979;28;20433;-72
2023/01/26 10:15:40;;;;;;;21.87;13.00;;;4.60;99.90;;;;;;5057789;28;20848;-72
2023/01/26 10:18:12;;;;;;;21.77;12.53;;;4.70;99.90;;;;;;5073983;28;20471;-71
2023/01/26 10:20:51;;;;;;;20.33;12.50;;;4.70;99.90;;;;;;5073380;28;21276;-69
2023/01/26 10:23:22;;;;;;;22.20;12.30;;;4.60;99.90;;;;;;5077842;28;20436;-69
2023/01/26 10:25:50;;;;;;;19.03;12.47;;;4.60;99.90;;;;;;5060585;28;20451;-69
2023/01/26 10:28:34;;;;;;;20.27;11.87;;;4.60;99.90;;;;;;5079098;28;20448;-69
2023/01/26 10:31:03;;;;;;;17.50;10.80;;;4.40;99.90;;;;;;5075084;28;20528;-69
2023/01/26 10:33:34;;;;;;;20.80;12.77;;;4.40;99.90;;;;;;5076266;28;20646;-69
2023/01/26 10:36:05;;;;;;;16.47;10.37;;;4.40;99.90;;;;;;5079394;28;20451;-69
2023/01/26 10:38:38;;;;;;;16.80;10.53;;;4.40;99.90;;;;;;5077966;28;20504;-69
2023/01/26 10:41:06;;;;;;;16.57;10.33;;;4.40;99.90;;;;;;5058468;28;20440;-69
2023/01/26 10:43:39;;;;;;;18.13;11.60;;;4.40;99.90;;;;;;5078761;28;20433;-69
2023/01/26 10:46:04;;;;;;;15.80;9.67;;;4.30;99.90;;;;;;5076292;28;20462;-69
2023/01/26 10:48:30;;;;;;;18.30;10.07;;;4.30;99.90;;;;;;5061714;28;20420;-70
2023/01/26 10:51:20;;;;;;;17.47;10.53;;;4.30;99.90;;;;;;5077801;28;20179;-70
2023/01/26 10:53:45;;;;;;;19.23;11.10;;;4.30;99.90;;;;;;5072649;28;20224;-69
2023/01/26 10:56:14;;;;;;;16.00;10.37;;;4.30;99.90;;;;;;5058837;28;20546;-70
2023/01/26 10:58:45;;;;;;;17.63;10.50;;;4.30;99.90;;;;;;5075348;28;20198;-69
2023/01/26 11:01:17;;;;;;;16.10;9.87;;;4.30;99.90;;;;;;5078617;28;20433;-69
2023/01/26 11:04:04;;;;;;;13.73;9.90;;;4.30;99.90;;;;;;5075328;28;21146;-70
2023/01/26 11:06:31;;;;;;;13.60;9.93;;;4.30;99.90;;;;;;5076421;28;20793;-69
2023/01/26 11:09:21;;;;;;;12.90;8.80;;;4.30;99.90;;;;;;5077008;28;20506;-69
2023/01/26 11:12:01;;;;;;;14.33;9.50;;;4.20;99.90;;;;;;5072189;28;20465;-70
2023/01/26 11:14:28;;;;;;;29.93;10.50;;;4.30;99.90;;;;;;5076837;28;20459;-69
2023/01/26 11:16:59;;;;;;;15.37;9.23;;;4.30;99.90;;;;;;5075329;28;20473;-69
2023/01/26 11:19:33;;;;;;;16.63;9.10;;;4.30;99.90;;;;;;5076182;28;20468;-69
2023/01/26 11:22:04;;;;;;;15.50;10.43;;;4.30;99.90;;;;;;5078221;28;20413;-69
2023/01/26 11:24:59;;;;;;;12.00;8.53;;;4.30;99.90;;;;;;5076438;28;20452;-69
2023/01/26 11:27:28;;;;;;;12.97;8.23;;;4.30;99.90;;;;;;5076159;28;20448;-69
2023/01/26 11:30:02;;;;;;;13.27;8.83;;;4.20;99.90;;;;;;5077792;28;20436;-69
2023/01/26 11:32:41;;;;;;;11.60;8.20;;;4.30;99.90;;;;;;5074086;28;20436;-69
2023/01/26 11:35:25;;;;;;;12.37;8.50;;;4.10;99.90;;;;;;5056707;28;21462;-69
2023/01/26 11:38:15;;;;;;;10.77;8.10;;;4.00;99.90;;;;;;5075449;28;20578;-69
2023/01/26 11:40:50;;;;;;;15.20;8.50;;;4.00;99.90;;;;;;5077368;28;20967;-69
2023/01/26 11:43:31;;;;;;;11.50;8.37;;;4.00;99.90;;;;;;5078348;28;20424;-69
2023/01/26 11:46:13;;;;;;;13.20;9.40;;;4.00;99.90;;;;;;5040658;28;20977;-69
2023/01/26 11:48:55;;;;;;;11.63;8.30;;;4.00;99.90;;;;;;5076773;28;20412;-69
2023/01/26 11:51:48;;;;;;;14.10;8.67;;;4.00;99.90;;;;;;5078078;28;20824;-69
2023/01/26 11:54:54;;;;;;;11.20;8.40;;;4.00;99.90;;;;;;5079328;28;20413;-70
2023/01/26 11:57:58;;;;;;;13.57;8.67;;;4.00;99.90;;;;;;5057902;28;20452;-70
2023/01/26 12:01:00;;;;;;;13.50;8.67;;;4.00;99.90;;;;;;5035468;28;20445;-69
2023/01/26 12:03:51;;;;;;;12.10;7.90;;;4.10;99.90;;;;;;5075344;28;20968;-69
2023/01/26 12:06:38;;;;;;;11.80;7.50;;;4.10;99.90;;;;;;5078684;28;20452;-70
2023/01/26 12:09:17;;;;;;;9.97;7.73;;;4.10;99.90;;;;;;5071877;28;20447;-69
2023/01/26 12:11:48;;;;;;;9.60;7.13;;;4.10;99.90;;;;;;5073886;28;20831;-69
2023/01/26 12:14:25;;;;;;;10.00;8.03;;;4.10;99.90;;;;;;5080517;28;20435;-70
2023/01/26 12:16:58;;;;;;;11.23;7.63;;;4.10;99.90;;;;;;5074120;28;20524;-70
2023/01/26 12:19:32;;;;;;;10.70;7.60;;;4.10;99.90;;;;;;5074160;28;20613;-69
2023/01/26 12:22:05;;;;;;;10.40;7.23;;;4.00;99.90;;;;;;5067204;28;20961;-70
2023/01/26 12:24:40;;;;;;;10.17;7.27;;;4.00;99.90;;;;;;5053323;28;20639;-70
2023/01/26 12:27:16;;;;;;;11.07;8.20;;;4.10;99.90;;;;;;5073174;28;20539;-69
2023/01/26 12:29:50;;;;;;;14.43;7.40;;;4.10;99.90;;;;;;5072984;28;20795;-69
2023/01/26 12:32:16;;;;;;;10.20;7.60;;;4.10;99.90;;;;;;5072490;28;20440;-69
2023/01/26 12:34:42;;;;;;;10.23;7.10;;;4.10;99.90;;;;;;5071162;28;20429;-69
2023/01/26 12:37:35;;;;;;;12.80;7.40;;;4.20;99.90;;;;;;5076907;28;20474;-71
2023/01/26 12:40:38;;;;;;;12.97;7.30;;;4.20;99.90;;;;;;5068750;28;20210;-70
2023/01/26 12:43:15;;;;;;;8.33;6.30;;;4.20;99.90;;;;;;5071297;28;20507;-71
2023/01/26 12:45:45;;;;;;;10.97;7.03;;;4.20;99.90;;;;;;5052185;28;21013;-71
2023/01/26 12:48:18;;;;;;;9.20;6.63;;;4.20;99.90;;;;;;5076168;28;20505;-70
2023/01/26 12:50:50;;;;;;;12.60;8.10;;;4.30;99.90;;;;;;5073256;28;21248;-71
2023/01/26 12:53:30;;;;;;;12.10;7.73;;;4.30;99.90;;;;;;5077436;28;20816;-68
2023/01/26 12:56:12;;;;;;;10.50;7.43;;;4.30;99.90;;;;;;5070459;28;20455;-68
2023/01/26 12:58:41;;;;;;;9.63;7.00;;;4.30;99.90;;;;;;5072835;28;20495;-68
2023/01/26 13:01:13;;;;;;;10.17;7.47;;;4.40;99.90;;;;;;5072113;28;20436;-69
2023/01/26 13:03:55;;;;;;;10.23;7.33;;;4.40;99.90;;;;;;5073679;28;20519;-69
2023/01/26 13:06:24;;;;;;;10.90;7.63;;;4.40;99.90;;;;;;5068602;28;20460;-69
2023/01/26 13:09:00;;;;;;;9.57;7.17;;;4.40;99.90;;;;;;5075042;28;20424;-69
2023/01/26 13:11:49;;;;;;;9.87;6.73;;;4.40;99.90;;;;;;5075747;28;20570;-70
2023/01/26 13:14:56;;;;;;;9.70;6.40;;;4.30;99.90;;;;;;5074272;28;20568;-70
2023/01/26 13:17:22;;;;;;;9.97;7.27;;;4.30;99.90;;;;;;5070280;28;20883;-68
2023/01/26 13:19:53;;;;;;;8.43;7.43;;;4.40;99.90;;;;;;5074195;28;20563;-71
2023/01/26 13:22:21;;;;;;;9.27;6.87;;;4.40;99.90;;;;;;5076404;28;20436;-71
2023/01/26 13:25:06;;;;;;;8.80;6.53;;;4.40;99.90;;;;;;5077248;28;20499;-70
2023/01/26 13:27:37;;;;;;;9.43;7.10;;;4.30;99.90;;;;;;5075679;28;20444;-70
2023/01/26 13:30:23;;;;;;;14.37;8.20;;;4.40;99.90;;;;;;5077860;28;20424;-71
2023/01/26 13:32:48;;;;;;;9.43;7.77;;;4.50;99.90;;;;;;5072193;28;21080;-70
2023/01/26 13:35:20;;;;;;;11.67;7.13;;;4.50;99.90;;;;;;5074807;28;20515;-71
2023/01/26 13:38:05;;;;;;;10.80;7.10;;;4.50;99.90;;;;;;5073434;28;20240;-71
2023/01/26 13:40:34;;;;;;;11.30;7.67;;;4.50;99.90;;;;;;5070861;28;20429;-69